Main page
METAR-TAF:

METAR-TAF

Airports :

Parma, Italy

Parma Airport

latitude: 44-49-17N, longitude: 010-17-41E, elevation: 50 m

Current weather observation

The report was made 29 minutes ago, at 14:50 UTC
Wind 5 kt from the Southeast
Temperature 18°C
Humidity 49%
Pressure 1012 hPa
Visibility 10 km or more
Broken clouds at a height of 4000 ft

METAR: LIMP 191450Z 14005KT 9999 BKN040 18/07 Q1012

Time: 17:19 (15:19 UTC)

Forecast

The report was made 4 hours and 19 minutes ago, at 11:00 UTC
Forecast valid from 19 at 12 UTC to 20 at 12 UTC
Wind 5 kt from variable directions
Visibility: 7000 m
Scattered clouds at a height of 5000 ft
Temporary
from 20 at 02 UTC to 20 at 06 UTC
Visibility: 3500 m
mist

TAF: LIMP 191100Z 1912/2012 VRB05KT 7000 SCT050 TEMPO 2002/2006 3500 BR

Weather observations and forecasts of more than 4000 airports (METAR and TAF reports).

The available stations are represented by yellow and red dots on the map.

Hover mouse over dot to see the name of the station.

Then click to see weather observations and forecasts.

To change the map : click on the green buttons with a black cross to zoom in, on the green button with a dash to zoom out, or on the green arrows for adjacent maps.


METAR-TAF: